Green Fast — ZDHA9 — position and weather

sailwx.info

Track history (hours):
 
Tides and Currents Weather Stations Pressure Air Temp Water Temp Dewpoint Dewpoint Depression Visibility Wind Speed Wind Dir Waves Ship Positions

Green Fast

Last reported at 2015-May-30 03:19 UTC. Time now 2015-May-30 04:34 UTC.
Position N 39°24' W 000°18'.

Length 118 m; draft 5.1 m.

Type: Cargo ship. MMSI: 236294000.

Date/timePositionNaut miles runAvg speedWind from/ knotsBaromVisibWave heightAir tempDewpointWater temp
2015-May-30 03:19N 39°24' W 000°18'0 0.0
2015-May-30 02:31N 39°24' W 000°18'0 0.0
2015-May-30 01:22N 39°24' W 000°18'0 0.0
2015-May-30 00:28N 39°24' W 000°18'0 0.0
2015-May-29 23:31N 39°24' W 000°18'0 0.0
2015-May-29 21:28N 39°24' W 000°18'0 0.0
2015-May-29 20:22N 39°24' W 000°18'0 0.0
2015-May-29 19:28N 39°24' W 000°18'0 0.0
2015-May-29 18:31N 39°24' W 000°18'0 0.0
2015-May-29 17:31N 39°24' W 000°18'0 0.0
2015-May-29 16:25N 39°24' W 000°18'0 0.0
2015-May-29 15:28N 39°24' W 000°18'0 0.0
2015-May-29 14:28N 39°24' W 000°18'0 0.0
2015-May-29 13:31N 39°24' W 000°18'0 0.0
2015-May-29 12:31N 39°24' W 000°18'0 0.0
2015-May-29 11:31N 39°24' W 000°18'0 0.0
2015-May-29 10:31N 39°24' W 000°18'0 0.0
2015-May-29 06:31N 39°24' W 000°18'0 0.0
2015-May-29 05:28N 39°24' W 000°18'0 0.0
2015-May-29 04:31N 39°24' W 000°18'0 0.0
2015-May-29 03:16N 39°24' W 000°18'0 0.0
2015-May-29 02:31N 39°24' W 000°18'0 0.1
2015-May-29 00:31N 39°24' W 000°18'0 0.0
2015-May-28 23:28N 39°24' W 000°18'0 0.0
2015-May-28 22:31N 39°24' W 000°18'0 0.0
2015-May-28 21:31N 39°24' W 000°18'0 0.0
2015-May-28 20:31N 39°24' W 000°18'0 0.0
2015-May-28 19:31N 39°24' W 000°18'0 0.0
2015-May-28 18:31N 39°24' W 000°18'0 0.0
2015-May-28 17:31N 39°24' W 000°18'0 0.0
2015-May-28 16:31N 39°24' W 000°18'0 0.0
2015-May-28 15:25N 39°24' W 000°18'0 0.0
2015-May-28 14:31N 39°24' W 000°18'0 0.0
2015-May-28 13:31N 39°24' W 000°18'0 0.0
2015-May-28 12:31N 39°24' W 000°18'0 0.0
2015-May-28 11:31N 39°24' W 000°18'0 0.0
2015-May-28 10:31N 39°24' W 000°18'0 0.0
2015-May-28 09:28N 39°24' W 000°18'0 0.0
2015-May-28 06:19N 39°24' W 000°18'0 0.0
2015-May-28 04:31N 39°24' W 000°18'0 0.0
2015-May-28 03:28N 39°24' W 000°18'0 0.0
2015-May-28 02:22N 39°24' W 000°18'0 0.0
2015-May-28 00:31N 39°24' W 000°18'0 0.0
2015-May-27 23:31N 39°24' W 000°18'0 0.0
2015-May-27 22:31N 39°24' W 000°18'0 0.0
2015-May-27 21:31N 39°24' W 000°18'0 0.0
2015-May-27 20:31N 39°24' W 000°18'0 0.0
2015-May-27 19:31N 39°24' W 000°18'0 0.0
2015-May-27 18:31N 39°24' W 000°18'0 0.0
2015-May-27 17:31N 39°24' W 000°18'0 0.0
2015-May-27 16:31N 39°24' W 000°18'0 0.0
2015-May-27 15:31N 39°24' W 000°18'2 2.1
2015-May-27 14:33N 39°23' W 000°16'4510.1
2015-May-27 10:05N 38°52' E 000°27'3010.1
2015-May-27 07:06N 38°31' E 000°54'6 9.8
2015-May-27 06:31N 38°27' E 000°60'3110.0
2015-May-27 03:27N 38°06' E 001°28'12 9.7
2015-May-27 02:10N 37°57' E 001°39'10 9.6
2015-May-27 01:09N 37°51' E 001°49'6 9.9
2015-May-27 00:33N 37°47' E 001°54'43 9.8
2015-May-26 20:09N 37°16' E 002°32'6 9.4
2015-May-26 19:33N 37°12' E 002°37'9 9.4
2015-May-26 18:33N 37°06' E 002°46'1010.0
2015-May-26 17:33N 36°58' E 002°55'  
2015-May-23 17:29N 43°08' E 005°00'1111.4
2015-May-23 16:33N 43°19' E 004°59'9 8.5
2015-May-23 15:31N 43°25' E 004°50'0 0.0
2015-May-23 14:31N 43°25' E 004°50'0 0.0
2015-May-23 13:31N 43°25' E 004°50'0 0.0
2015-May-23 12:25N 43°25' E 004°50'0 0.0
2015-May-23 11:31N 43°25' E 004°50'0 0.0
2015-May-23 10:33N 43°25' E 004°50'3 3.3
2015-May-23 09:34N 43°24' E 004°54'9 8.6
2015-May-23 08:33N 43°17' E 005°01'8 7.6
2015-May-23 07:33N 43°10' E 005°06'9 7.7
2015-May-23 06:25N 43°06' E 005°17'66 8.3
2015-May-22 22:33N 42°55' E 006°45'10 9.7
2015-May-22 21:34N 43°00' E 006°56'9 9.3
2015-May-22 20:32N 43°06' E 007°07'9 9.0
2015-May-22 19:33N 43°11' E 007°17'9 9.0
2015-May-22 18:33N 43°17' E 007°27'1010.4
2015-May-22 17:34N 43°23' E 007°38'10 9.6
2015-May-22 16:33N 43°28' E 007°49'1111.2
2015-May-22 15:34N 43°32' E 008°03'1312.5
2015-May-22 14:33N 43°36' E 008°20'1312.9
2015-May-22 13:33N 43°40' E 008°36'1312.5
2015-May-22 12:34N 43°44' E 008°53'1212.4
2015-May-22 11:33N 43°49' E 009°09'1312.7
2015-May-22 10:33N 43°53' E 009°26'1313.0
2015-May-22 09:34N 43°57' E 009°43'10 9.7
2015-May-22 08:34N 44°05' E 009°51'1 1.3
2015-May-22 07:34N 44°06' E 009°51'0 0.0
2015-May-22 06:34N 44°06' E 009°51'0 0.0
2015-May-22 05:34N 44°06' E 009°51'0 0.0
2015-May-22 04:34N 44°06' E 009°51'0 0.0
2015-May-22 03:33N 44°06' E 009°51'0 0.0
2015-May-22 02:33N 44°06' E 009°51'0 0.0
2015-May-22 01:33N 44°06' E 009°51'0 0.0
2015-May-22 00:33N 44°06' E 009°51'0 0.0
2015-May-21 23:34N 44°06' E 009°51'0 0.0
2015-May-21 22:33N 44°06' E 009°51'0 0.0
2015-May-21 21:33N 44°06' E 009°51'0 0.0
2015-May-21 20:33N 44°06' E 009°51'0 0.0
2015-May-21 19:34N 44°06' E 009°51'5 5.5
2015-May-21 18:33N 44°01' E 009°54'1312.9
2015-May-21 17:33N 43°51' E 009°43'1414.3
2015-May-21 16:33N 43°44' E 009°26'1414.2
2015-May-21 15:33N 43°36' E 009°10'1414.2
2015-May-21 14:33N 43°27' E 008°54'  
Track history (hours):
 
Tides and Currents Weather Stations Pressure Air Temp Water Temp Dewpoint Dewpoint Depression Visibility Wind Speed Wind Dir Waves Ship Positions

Green Fast

Last reported at 2015-May-30 03:19 UTC. Time now 2015-May-30 04:34 UTC.
Position N 39°24' W 000°18'.

Length 118 m; draft 5.1 m.

Type: Cargo ship. MMSI: 236294000.

Date/timePositionNaut miles runAvg speedWind from/ knotsBaromVisibWave heightAir tempDewpointWater temp
2015-May-30 03:19N 39°24' W 000°18'0 0.0
2015-May-30 02:31N 39°24' W 000°18'0 0.0
2015-May-30 01:22N 39°24' W 000°18'0 0.0
2015-May-30 00:28N 39°24' W 000°18'0 0.0
2015-May-29 23:31N 39°24' W 000°18'0 0.0
2015-May-29 21:28N 39°24' W 000°18'0 0.0
2015-May-29 20:22N 39°24' W 000°18'0 0.0
2015-May-29 19:28N 39°24' W 000°18'0 0.0
2015-May-29 18:31N 39°24' W 000°18'0 0.0
2015-May-29 17:31N 39°24' W 000°18'0 0.0
2015-May-29 16:25N 39°24' W 000°18'0 0.0
2015-May-29 15:28N 39°24' W 000°18'0 0.0
2015-May-29 14:28N 39°24' W 000°18'0 0.0
2015-May-29 13:31N 39°24' W 000°18'0 0.0
2015-May-29 12:31N 39°24' W 000°18'0 0.0
2015-May-29 11:31N 39°24' W 000°18'0 0.0
2015-May-29 10:31N 39°24' W 000°18'0 0.0
2015-May-29 06:31N 39°24' W 000°18'0 0.0
2015-May-29 05:28N 39°24' W 000°18'0 0.0
2015-May-29 04:31N 39°24' W 000°18'0 0.0
2015-May-29 03:16N 39°24' W 000°18'0 0.0
2015-May-29 02:31N 39°24' W 000°18'0 0.1
2015-May-29 00:31N 39°24' W 000°18'0 0.0
2015-May-28 23:28N 39°24' W 000°18'0 0.0
2015-May-28 22:31N 39°24' W 000°18'0 0.0
2015-May-28 21:31N 39°24' W 000°18'0 0.0
2015-May-28 20:31N 39°24' W 000°18'0 0.0
2015-May-28 19:31N 39°24' W 000°18'0 0.0
2015-May-28 18:31N 39°24' W 000°18'0 0.0
2015-May-28 17:31N 39°24' W 000°18'0 0.0
2015-May-28 16:31N 39°24' W 000°18'0 0.0
2015-May-28 15:25N 39°24' W 000°18'0 0.0
2015-May-28 14:31N 39°24' W 000°18'0 0.0
2015-May-28 13:31N 39°24' W 000°18'0 0.0
2015-May-28 12:31N 39°24' W 000°18'0 0.0
2015-May-28 11:31N 39°24' W 000°18'0 0.0
2015-May-28 10:31N 39°24' W 000°18'0 0.0
2015-May-28 09:28N 39°24' W 000°18'0 0.0
2015-May-28 06:19N 39°24' W 000°18'0 0.0
2015-May-28 04:31N 39°24' W 000°18'0 0.0
2015-May-28 03:28N 39°24' W 000°18'0 0.0
2015-May-28 02:22N 39°24' W 000°18'0 0.0
2015-May-28 00:31N 39°24' W 000°18'0 0.0
2015-May-27 23:31N 39°24' W 000°18'0 0.0
2015-May-27 22:31N 39°24' W 000°18'0 0.0
2015-May-27 21:31N 39°24' W 000°18'0 0.0
2015-May-27 20:31N 39°24' W 000°18'0 0.0
2015-May-27 19:31N 39°24' W 000°18'0 0.0
2015-May-27 18:31N 39°24' W 000°18'0 0.0
2015-May-27 17:31N 39°24' W 000°18'0 0.0
2015-May-27 16:31N 39°24' W 000°18'0 0.0
2015-May-27 15:31N 39°24' W 000°18'2 2.1
2015-May-27 14:33N 39°23' W 000°16'4510.1
2015-May-27 10:05N 38°52' E 000°27'3010.1
2015-May-27 07:06N 38°31' E 000°54'6 9.8
2015-May-27 06:31N 38°27' E 000°60'3110.0
2015-May-27 03:27N 38°06' E 001°28'12 9.7
2015-May-27 02:10N 37°57' E 001°39'10 9.6
2015-May-27 01:09N 37°51' E 001°49'6 9.9
2015-May-27 00:33N 37°47' E 001°54'43 9.8
2015-May-26 20:09N 37°16' E 002°32'6 9.4
2015-May-26 19:33N 37°12' E 002°37'9 9.4
2015-May-26 18:33N 37°06' E 002°46'1010.0
2015-May-26 17:33N 36°58' E 002°55'  
2015-May-23 17:29N 43°08' E 005°00'1111.4
2015-May-23 16:33N 43°19' E 004°59'9 8.5
2015-May-23 15:31N 43°25' E 004°50'0 0.0
2015-May-23 14:31N 43°25' E 004°50'0 0.0
2015-May-23 13:31N 43°25' E 004°50'0 0.0
2015-May-23 12:25N 43°25' E 004°50'0 0.0
2015-May-23 11:31N 43°25' E 004°50'0 0.0
2015-May-23 10:33N 43°25' E 004°50'3 3.3
2015-May-23 09:34N 43°24' E 004°54'9 8.6
2015-May-23 08:33N 43°17' E 005°01'8 7.6
2015-May-23 07:33N 43°10' E 005°06'9 7.7
2015-May-23 06:25N 43°06' E 005°17'66 8.3
2015-May-22 22:33N 42°55' E 006°45'10 9.7
2015-May-22 21:34N 43°00' E 006°56'9 9.3
2015-May-22 20:32N 43°06' E 007°07'9 9.0
2015-May-22 19:33N 43°11' E 007°17'9 9.0
2015-May-22 18:33N 43°17' E 007°27'1010.4
2015-May-22 17:34N 43°23' E 007°38'10 9.6
2015-May-22 16:33N 43°28' E 007°49'1111.2
2015-May-22 15:34N 43°32' E 008°03'1312.5
2015-May-22 14:33N 43°36' E 008°20'1312.9
2015-May-22 13:33N 43°40' E 008°36'1312.5
2015-May-22 12:34N 43°44' E 008°53'1212.4
2015-May-22 11:33N 43°49' E 009°09'1312.7
2015-May-22 10:33N 43°53' E 009°26'1313.0
2015-May-22 09:34N 43°57' E 009°43'10 9.7
2015-May-22 08:34N 44°05' E 009°51'1 1.3
2015-May-22 07:34N 44°06' E 009°51'0 0.0
2015-May-22 06:34N 44°06' E 009°51'0 0.0
2015-May-22 05:34N 44°06' E 009°51'0 0.0
2015-May-22 04:34N 44°06' E 009°51'0 0.0
2015-May-22 03:33N 44°06' E 009°51'0 0.0
2015-May-22 02:33N 44°06' E 009°51'0 0.0
2015-May-22 01:33N 44°06' E 009°51'0 0.0
2015-May-22 00:33N 44°06' E 009°51'0 0.0
2015-May-21 23:34N 44°06' E 009°51'0 0.0
2015-May-21 22:33N 44°06' E 009°51'0 0.0
2015-May-21 21:33N 44°06' E 009°51'0 0.0
2015-May-21 20:33N 44°06' E 009°51'0 0.0
2015-May-21 19:34N 44°06' E 009°51'5 5.5
2015-May-21 18:33N 44°01' E 009°54'1312.9
2015-May-21 17:33N 43°51' E 009°43'1414.3
2015-May-21 16:33N 43°44' E 009°26'1414.2
2015-May-21 15:33N 43°36' E 009°10'1414.2
2015-May-21 14:33N 43°27' E 008°54'  

Dump ship's entire track history